createdAt,value
2017-11-07T00:00:07.026Z,1021.58
2017-11-07T00:01:16.665Z,1021.58
2017-11-07T00:02:26.647Z,1021.59
2017-11-07T00:03:36.606Z,1021.56
2017-11-07T00:04:46.579Z,1021.6
2017-11-07T00:05:56.548Z,1021.53
2017-11-07T00:07:06.512Z,1021.57
2017-11-07T00:08:16.814Z,1021.53
2017-11-07T00:09:27.031Z,1021.55
2017-11-07T00:10:36.997Z,1021.52
2017-11-07T00:11:47.318Z,1021.54
2017-11-07T00:12:57.608Z,1021.56
2017-11-07T00:14:07.906Z,1021.55
2017-11-07T00:15:17.549Z,1021.56
2017-11-07T00:16:27.861Z,1021.51
2017-11-07T00:17:38.143Z,1021.52
2017-11-07T00:18:48.106Z,1021.54
2017-11-07T00:19:58.405Z,1021.48
2017-11-07T00:21:08.707Z,1021.52
2017-11-07T00:22:19.005Z,1021.54
2017-11-07T00:23:29.300Z,1021.53
2017-11-07T00:24:39.596Z,1021.56
2017-11-07T00:25:49.564Z,1021.5
2017-11-07T00:26:59.529Z,1021.48
2017-11-07T00:28:09.499Z,1021.51
2017-11-07T00:29:19.782Z,1021.51
2017-11-07T00:30:30.084Z,1021.52
2017-11-07T00:31:40.101Z,1021.5
2017-11-07T00:32:49.749Z,1021.47
2017-11-07T00:34:00.038Z,1021.51
2017-11-07T00:35:10.328Z,1021.5
2017-11-07T00:36:20.628Z,1021.49
2017-11-07T00:37:30.919Z,1021.53
2017-11-07T00:38:41.212Z,1021.51
2017-11-07T00:39:51.501Z,1021.46
2017-11-07T00:41:01.793Z,1021.53
2017-11-07T00:42:11.776Z,1021.52
2017-11-07T00:43:22.065Z,1021.55
2017-11-07T00:44:32.371Z,1021.54
2017-11-07T00:45:42.651Z,1021.51
2017-11-07T00:46:52.942Z,1021.52
2017-11-07T00:48:02.889Z,1021.52
2017-11-07T00:49:12.868Z,1021.57
2017-11-07T00:50:22.825Z,1021.52
2017-11-07T00:51:32.786Z,1021.54
2017-11-07T00:52:42.746Z,1021.51
2017-11-07T00:53:53.037Z,1021.56
2017-11-07T00:55:03.333Z,1021.52
2017-11-07T00:56:13.303Z,1021.58
2017-11-07T00:57:23.591Z,1021.54
2017-11-07T00:58:33.552Z,1021.56
2017-11-07T00:59:43.527Z,1021.57
2017-11-07T01:00:53.828Z,1021.55
2017-11-07T01:02:03.799Z,1021.56
2017-11-07T01:03:14.090Z,1021.57
2017-11-07T01:04:24.049Z,1021.6
2017-11-07T01:05:34.339Z,1021.56
2017-11-07T01:06:44.633Z,1021.6
2017-11-07T01:07:54.610Z,1021.58
2017-11-07T01:09:04.935Z,1021.6
2017-11-07T01:10:15.224Z,1021.59
2017-11-07T01:11:25.182Z,1021.57
2017-11-07T01:12:35.474Z,1021.55
2017-11-07T01:13:45.780Z,1021.54
2017-11-07T01:14:55.743Z,1021.6
2017-11-07T01:16:06.036Z,1021.61
2017-11-07T01:17:15.679Z,1021.56
2017-11-07T01:18:25.312Z,1021.54
2017-11-07T01:19:35.268Z,1021.53
2017-11-07T01:20:45.600Z,1021.57
2017-11-07T01:21:55.566Z,1021.58
2017-11-07T01:23:05.523Z,1021.57
2017-11-07T01:24:15.834Z,1021.55
2017-11-07T01:25:25.800Z,1021.55
2017-11-07T01:26:36.084Z,1021.54
2017-11-07T01:27:45.715Z,1021.55
2017-11-07T01:28:56.006Z,1021.54
2017-11-07T01:30:06.302Z,1021.52
2017-11-07T01:31:16.257Z,1021.54
2017-11-07T01:32:26.220Z,1021.54
2017-11-07T01:33:36.518Z,1021.56
2017-11-07T01:34:46.817Z,1021.56
2017-11-07T01:35:57.119Z,1021.57
2017-11-07T01:37:07.412Z,1021.57
2017-11-07T01:38:17.374Z,1021.56
2017-11-07T01:39:27.674Z,1021.56
2017-11-07T01:40:37.976Z,1021.58
2017-11-07T01:41:47.933Z,1021.61
2017-11-07T01:42:58.256Z,1021.63
2017-11-07T01:44:08.234Z,1021.63
2017-11-07T01:45:18.199Z,1021.61
2017-11-07T01:46:28.507Z,1021.58
2017-11-07T01:47:38.479Z,1021.6
2017-11-07T01:48:48.770Z,1021.57
2017-11-07T01:49:59.054Z,1021.58
2017-11-07T01:51:09.022Z,1021.55
2017-11-07T01:52:19.314Z,1021.56
2017-11-07T01:53:29.286Z,1021.56
2017-11-07T01:54:39.576Z,1021.54
2017-11-07T01:55:49.552Z,1021.54
2017-11-07T01:56:59.545Z,1021.55
2017-11-07T01:58:09.833Z,1021.56
2017-11-07T01:59:20.147Z,1021.57
2017-11-07T02:00:30.106Z,1021.58
2017-11-07T02:01:40.405Z,1021.61
2017-11-07T02:02:50.689Z,1021.57
2017-11-07T02:04:00.994Z,1021.55
2017-11-07T02:05:11.288Z,1021.52
2017-11-07T02:06:21.585Z,1021.54
2017-11-07T02:07:31.870Z,1021.53
2017-11-07T02:08:42.187Z,1021.51
2017-11-07T02:09:52.483Z,1021.57
2017-11-07T02:11:02.461Z,1021.57
2017-11-07T02:12:12.762Z,1021.56
2017-11-07T02:13:23.051Z,1021.54
2017-11-07T02:14:33.346Z,1021.56
2017-11-07T02:15:43.635Z,1021.55
2017-11-07T02:16:53.930Z,1021.52
2017-11-07T02:18:04.214Z,1021.53
2017-11-07T02:19:14.514Z,1021.55
2017-11-07T02:20:24.797Z,1021.57
2017-11-07T02:21:34.767Z,1021.56
2017-11-07T02:22:44.750Z,1021.58
2017-11-07T02:23:54.705Z,1021.61
2017-11-07T02:25:05.005Z,1021.6
2017-11-07T02:26:15.307Z,1021.61
2017-11-07T02:27:25.267Z,1021.61
2017-11-07T02:28:34.909Z,1021.65
2017-11-07T02:29:45.231Z,1021.65
2017-11-07T02:30:55.521Z,1021.68
2017-11-07T02:32:05.830Z,1021.72
2017-11-07T02:33:15.811Z,1021.68
2017-11-07T02:34:25.774Z,1021.66
2017-11-07T02:35:36.072Z,1021.69
2017-11-07T02:36:46.363Z,1021.64
2017-11-07T02:37:56.673Z,1021.67
2017-11-07T02:39:06.634Z,1021.64
2017-11-07T02:40:16.606Z,1021.64
2017-11-07T02:41:26.899Z,1021.64
2017-11-07T02:42:36.867Z,1021.67
2017-11-07T02:43:47.164Z,1021.66
2017-11-07T02:44:57.453Z,1021.66
2017-11-07T02:46:07.431Z,1021.71
2017-11-07T02:47:17.422Z,1021.72
2017-11-07T02:48:27.734Z,1021.69
2017-11-07T02:49:37.698Z,1021.73
2017-11-07T02:50:47.987Z,1021.7
2017-11-07T02:51:58.293Z,1021.71
2017-11-07T02:53:08.582Z,1021.72
2017-11-07T02:54:18.874Z,1021.66
2017-11-07T02:55:28.837Z,1021.69
2017-11-07T02:56:39.126Z,1021.7
2017-11-07T02:57:48.767Z,1021.77
2017-11-07T02:58:59.066Z,1021.73
2017-11-07T03:00:09.328Z,1021.71
2017-11-07T03:01:19.303Z,1021.76
2017-11-07T03:02:29.264Z,1021.7
2017-11-07T03:03:38.899Z,1021.71
2017-11-07T03:04:48.872Z,1021.72
2017-11-07T03:05:59.181Z,1021.75
2017-11-07T03:07:09.475Z,1021.71
2017-11-07T03:08:19.444Z,1021.72
2017-11-07T03:09:29.790Z,1021.68
2017-11-07T03:10:39.758Z,1021.69
2017-11-07T03:11:50.064Z,1021.71
2017-11-07T03:13:00.020Z,1021.67
2017-11-07T03:14:10.306Z,1021.7
2017-11-07T03:15:20.604Z,1021.73
2017-11-07T03:16:30.568Z,1021.69
2017-11-07T03:17:40.870Z,1021.65
2017-11-07T03:18:51.180Z,1021.63
2017-11-07T03:20:01.126Z,1021.63
2017-11-07T03:21:11.417Z,1021.56
2017-11-07T03:22:21.704Z,1021.54
2017-11-07T03:23:32.000Z,1021.57
2017-11-07T03:24:41.970Z,1021.53
2017-11-07T03:25:52.275Z,1021.6
2017-11-07T03:27:02.581Z,1021.55
2017-11-07T03:28:12.544Z,1021.58
2017-11-07T03:29:22.821Z,1021.58
2017-11-07T03:30:33.380Z,1021.63
2017-11-07T03:31:43.662Z,1021.58
2017-11-07T03:32:53.632Z,1021.57
2017-11-07T03:34:03.936Z,1021.56
2017-11-07T03:35:13.887Z,1021.53
2017-11-07T03:36:24.173Z,1021.53
2017-11-07T03:37:34.456Z,1021.49
2017-11-07T03:38:44.776Z,1021.48
2017-11-07T03:39:55.076Z,1021.49
2017-11-07T03:41:05.403Z,1021.47
2017-11-07T03:42:15.700Z,1021.49
2017-11-07T03:43:25.984Z,1021.45
2017-11-07T03:44:35.947Z,1021.45
2017-11-07T03:45:46.235Z,1021.5
2017-11-07T03:46:56.529Z,1021.49
2017-11-07T03:48:06.817Z,1021.54
2017-11-07T03:49:17.139Z,1021.52
2017-11-07T03:50:27.101Z,1021.52
2017-11-07T03:51:37.394Z,1021.53
2017-11-07T03:52:47.350Z,1021.57
2017-11-07T03:53:57.634Z,1021.56
2017-11-07T03:55:07.925Z,1021.57
2017-11-07T03:56:18.210Z,1021.56
2017-11-07T03:57:28.494Z,1021.52
2017-11-07T03:58:38.784Z,1021.5
2017-11-07T03:59:49.087Z,1021.52
2017-11-07T04:00:59.370Z,1021.5
2017-11-07T04:02:09.674Z,1021.51
2017-11-07T04:03:19.968Z,1021.53
2017-11-07T04:04:29.962Z,1021.55
2017-11-07T04:05:40.254Z,1021.56
2017-11-07T04:06:50.533Z,1021.58
2017-11-07T04:08:00.832Z,1021.56
2017-11-07T04:09:10.824Z,1021.56
2017-11-07T04:10:21.105Z,1021.52
2017-11-07T04:11:31.080Z,1021.51
2017-11-07T04:12:41.375Z,1021.52
2017-11-07T04:13:51.662Z,1021.47
2017-11-07T04:15:01.942Z,1021.49
2017-11-07T04:16:12.243Z,1021.53
2017-11-07T04:17:22.540Z,1021.55
2017-11-07T04:18:32.494Z,1021.49
2017-11-07T04:19:42.455Z,1021.63
2017-11-07T04:20:52.736Z,1021.59
2017-11-07T04:22:02.700Z,1021.58
2017-11-07T04:23:12.665Z,1021.56
2017-11-07T04:24:22.964Z,1021.56
2017-11-07T04:25:32.275Z,1021.53
2017-11-07T04:26:42.568Z,1021.57
2017-11-07T04:27:52.868Z,1021.53
2017-11-07T04:29:02.824Z,1021.52
2017-11-07T04:30:12.607Z,1021.53
2017-11-07T04:31:22.241Z,1021.5
2017-11-07T04:32:32.534Z,1021.49
2017-11-07T04:33:42.835Z,1021.5
2017-11-07T04:34:52.794Z,1021.48
2017-11-07T04:36:03.085Z,1021.54
2017-11-07T04:37:13.371Z,1021.53
2017-11-07T04:38:23.669Z,1021.55
2017-11-07T04:39:33.968Z,1021.51
2017-11-07T04:40:44.253Z,1021.51
2017-11-07T04:41:53.899Z,1021.48
2017-11-07T04:43:03.860Z,1021.46
2017-11-07T04:44:14.153Z,1021.46
2017-11-07T04:45:24.441Z,1021.48
2017-11-07T04:46:34.748Z,1021.46
2017-11-07T04:47:45.049Z,1021.5
2017-11-07T04:48:55.340Z,1021.49
2017-11-07T04:50:05.625Z,1021.46
2017-11-07T04:51:15.918Z,1021.5
2017-11-07T04:52:26.212Z,1021.48
2017-11-07T04:53:36.169Z,1021.47
2017-11-07T04:54:46.441Z,1021.41
2017-11-07T04:55:56.743Z,1021.47
2017-11-07T04:57:06.717Z,1021.46
2017-11-07T04:58:16.697Z,1021.46
2017-11-07T04:59:26.989Z,1021.44
2017-11-07T05:00:36.954Z,1021.42
2017-11-07T05:01:47.239Z,1021.38
2017-11-07T05:02:57.528Z,1021.31
2017-11-07T05:04:07.494Z,1021.31
2017-11-07T05:05:17.451Z,1021.26
2017-11-07T05:06:27.740Z,1021.25
2017-11-07T05:07:38.039Z,1021.27
2017-11-07T05:08:48.317Z,1021.25
2017-11-07T05:09:58.609Z,1021.26
2017-11-07T05:11:08.903Z,1021.28
2017-11-07T05:12:19.188Z,1021.29
2017-11-07T05:13:29.505Z,1021.3
2017-11-07T05:14:39.496Z,1021.27
2017-11-07T05:15:49.799Z,1021.28
2017-11-07T05:17:00.089Z,1021.32
2017-11-07T05:18:10.392Z,1021.29
2017-11-07T05:19:20.691Z,1021.3
2017-11-07T05:20:30.660Z,1021.28
2017-11-07T05:21:40.631Z,1021.28
2017-11-07T05:22:50.595Z,1021.29
2017-11-07T05:24:00.900Z,1021.31
2017-11-07T05:25:10.868Z,1021.28
2017-11-07T05:26:20.835Z,1021.31
2017-11-07T05:27:31.125Z,1021.28
2017-11-07T05:28:41.428Z,1021.33
2017-11-07T05:29:51.713Z,1021.32
2017-11-07T05:31:02.025Z,1021.3
2017-11-07T05:32:12.330Z,1021.27
2017-11-07T05:33:22.617Z,1021.33
2017-11-07T05:34:32.579Z,1021.32
2017-11-07T05:35:42.577Z,1021.33
2017-11-07T05:36:52.883Z,1021.33
2017-11-07T05:38:03.194Z,1021.32
2017-11-07T05:39:13.531Z,1021.35
2017-11-07T05:40:23.828Z,1021.34
2017-11-07T05:41:33.463Z,1021.3
2017-11-07T05:42:43.751Z,1021.32
2017-11-07T05:43:53.722Z,1021.32
2017-11-07T05:45:03.932Z,1021.33
2017-11-07T05:46:14.242Z,1021.33
2017-11-07T05:47:24.523Z,1021.3
2017-11-07T05:48:34.873Z,1021.28
2017-11-07T05:49:45.168Z,1021.26
2017-11-07T05:50:55.458Z,1021.26
2017-11-07T05:52:05.745Z,1021.24
2017-11-07T05:53:16.034Z,1021.29
2017-11-07T05:54:26.332Z,1021.3
2017-11-07T05:55:36.620Z,1021.28
2017-11-07T05:56:46.905Z,1021.29
2017-11-07T05:57:57.191Z,1021.27
2017-11-07T05:59:07.486Z,1021.27
2017-11-07T06:00:17.454Z,1021.28
2017-11-07T06:01:27.750Z,1021.26
2017-11-07T06:02:38.053Z,1021.24
2017-11-07T06:03:48.337Z,1021.26
2017-11-07T06:04:58.629Z,1021.27
2017-11-07T06:06:08.921Z,1021.25
2017-11-07T06:07:19.216Z,1021.28
2017-11-07T06:08:29.523Z,1021.28
2017-11-07T06:09:39.833Z,1021.28
2017-11-07T06:10:49.820Z,1021.23
2017-11-07T06:12:00.114Z,1021.25
2017-11-07T06:13:10.400Z,1021.3
2017-11-07T06:14:20.702Z,1021.34
2017-11-07T06:15:31.221Z,1021.36
2017-11-07T06:16:41.496Z,1021.35
2017-11-07T06:17:51.787Z,1021.33
2017-11-07T06:19:02.124Z,1021.38
2017-11-07T06:20:12.410Z,1021.36
2017-11-07T06:21:22.367Z,1021.36
2017-11-07T06:22:32.335Z,1021.4
2017-11-07T06:23:42.303Z,1021.34
2017-11-07T06:24:52.588Z,1021.37
2017-11-07T06:26:02.587Z,1021.32
2017-11-07T06:27:12.889Z,1021.37
2017-11-07T06:28:23.196Z,1021.38
2017-11-07T06:29:33.496Z,1021.36
2017-11-07T06:30:43.788Z,1021.35
2017-11-07T06:31:54.076Z,1021.34
2017-11-07T06:33:04.357Z,1021.34
2017-11-07T06:34:14.664Z,1021.36
2017-11-07T06:35:24.956Z,1021.36
2017-11-07T06:36:34.922Z,1021.38
2017-11-07T06:37:44.924Z,1021.38
2017-11-07T06:38:55.215Z,1021.39
2017-11-07T06:40:05.509Z,1021.44
2017-11-07T06:41:15.826Z,1021.43
2017-11-07T06:42:26.114Z,1021.38
2017-11-07T06:43:36.076Z,1021.44
2017-11-07T06:44:46.045Z,1021.43
2017-11-07T06:45:56.347Z,1021.46
2017-11-07T06:47:06.643Z,1021.44
2017-11-07T06:48:16.615Z,1021.5
2017-11-07T06:49:26.246Z,1021.5
2017-11-07T06:50:36.215Z,1021.51
2017-11-07T06:51:46.187Z,1021.47
2017-11-07T06:52:56.175Z,1021.49
2017-11-07T06:54:06.159Z,1021.46
2017-11-07T06:55:16.448Z,1021.46
2017-11-07T06:56:26.735Z,1021.45
2017-11-07T06:57:37.023Z,1021.45
2017-11-07T06:58:46.986Z,1021.47
2017-11-07T06:59:56.971Z,1021.52
2017-11-07T07:01:07.272Z,1021.53
2017-11-07T07:02:17.546Z,1021.55
2017-11-07T07:03:27.477Z,1021.56
2017-11-07T07:04:37.414Z,1021.52
2017-11-07T07:05:47.689Z,1021.52
2017-11-07T07:06:57.617Z,1021.51
2017-11-07T07:08:07.860Z,1021.52
2017-11-07T07:09:17.833Z,1021.53
2017-11-07T07:10:27.754Z,1021.52
2017-11-07T07:11:37.705Z,1021.5
2017-11-07T07:12:48.011Z,1021.52
2017-11-07T07:13:57.986Z,1021.49
2017-11-07T07:15:07.969Z,1021.46
2017-11-07T07:16:18.269Z,1021.5
2017-11-07T07:17:28.551Z,1021.49
2017-11-07T07:18:38.199Z,1021.47
2017-11-07T07:19:48.488Z,1021.46
2017-11-07T07:20:58.796Z,1021.47
2017-11-07T07:22:08.776Z,1021.47
2017-11-07T07:23:19.073Z,1021.52
2017-11-07T07:24:29.388Z,1021.5
2017-11-07T07:25:39.383Z,1021.49
2017-11-07T07:26:49.697Z,1021.47
2017-11-07T07:27:59.992Z,1021.42
2017-11-07T07:29:10.277Z,1021.47
2017-11-07T07:30:20.570Z,1021.47
2017-11-07T07:31:30.862Z,1021.47
2017-11-07T07:32:41.160Z,1021.51
2017-11-07T07:33:51.126Z,1021.5
2017-11-07T07:35:01.429Z,1021.48
2017-11-07T07:36:11.388Z,1021.53
2017-11-07T07:37:21.368Z,1021.56
2017-11-07T07:38:31.344Z,1021.65
2017-11-07T07:39:41.324Z,1021.65
2017-11-07T07:40:51.662Z,1021.61
2017-11-07T07:42:01.951Z,1021.61
2017-11-07T07:43:12.318Z,1021.55
2017-11-07T07:44:22.285Z,1021.54
2017-11-07T07:45:32.312Z,1021.52
2017-11-07T07:46:42.292Z,1021.46
2017-11-07T07:47:52.260Z,1021.45
2017-11-07T07:49:02.576Z,1021.45
2017-11-07T07:50:12.871Z,1021.49
2017-11-07T07:51:23.183Z,1021.44
2017-11-07T07:52:33.158Z,1021.46
2017-11-07T07:53:43.463Z,1021.46
2017-11-07T07:54:53.807Z,1021.48
2017-11-07T07:56:03.831Z,1021.52
2017-11-07T07:57:14.167Z,1021.52
2017-11-07T07:58:24.706Z,1021.51
2017-11-07T07:59:34.370Z,1021.46
2017-11-07T08:00:45.429Z,1021.49
2017-11-07T08:01:55.727Z,1021.52
2017-11-07T08:03:06.052Z,1021.47
2017-11-07T08:04:16.353Z,1021.48
2017-11-07T08:05:26.669Z,1021.47
2017-11-07T08:06:37.009Z,1021.42
2017-11-07T08:07:46.673Z,1021.45
2017-11-07T08:08:56.988Z,1021.43
2017-11-07T08:10:06.988Z,1021.44
2017-11-07T08:11:17.314Z,1021.44
2017-11-07T08:12:27.611Z,1021.48
2017-11-07T08:13:37.908Z,1021.47
2017-11-07T08:14:48.227Z,1021.48
2017-11-07T08:15:58.528Z,1021.52
2017-11-07T08:17:08.516Z,1021.47
2017-11-07T08:18:18.182Z,1021.48
2017-11-07T08:19:28.473Z,1021.47
2017-11-07T08:20:38.439Z,1021.48
2017-11-07T08:21:48.470Z,1021.45
2017-11-07T08:22:58.757Z,1021.38
2017-11-07T08:24:08.743Z,1021.39
2017-11-07T08:25:18.764Z,1021.4
2017-11-07T08:26:29.065Z,1021.37
2017-11-07T08:27:39.031Z,1021.35
2017-11-07T08:28:49.346Z,1021.39
2017-11-07T08:29:59.314Z,1021.45
2017-11-07T08:31:09.617Z,1021.41
2017-11-07T08:32:19.929Z,1021.41
2017-11-07T08:33:30.246Z,1021.38
2017-11-07T08:34:40.544Z,1021.39
2017-11-07T08:35:50.866Z,1021.35
2017-11-07T08:37:01.177Z,1021.32
2017-11-07T08:38:11.474Z,1021.3
2017-11-07T08:39:21.780Z,1021.31
2017-11-07T08:40:32.092Z,1021.31
2017-11-07T08:41:42.412Z,1021.31
2017-11-07T08:42:52.723Z,1021.3
2017-11-07T08:44:02.700Z,1021.28
2017-11-07T08:45:13.013Z,1021.26
2017-11-07T08:46:23.323Z,1021.25
2017-11-07T08:47:33.635Z,1021.25
2017-11-07T08:48:43.948Z,1021.24
2017-11-07T08:49:53.927Z,1021.24
2017-11-07T08:51:04.238Z,1021.23
2017-11-07T08:52:14.221Z,1021.24
2017-11-07T08:53:24.529Z,1021.23
2017-11-07T08:54:34.835Z,1021.24
2017-11-07T08:55:44.535Z,1021.25
2017-11-07T08:56:54.499Z,1021.22
2017-11-07T08:58:04.804Z,1021.26
2017-11-07T08:59:14.786Z,1021.25
2017-11-07T09:00:24.769Z,1021.23
2017-11-07T09:01:34.748Z,1021.24
2017-11-07T09:02:45.061Z,1021.28
2017-11-07T09:03:54.736Z,1021.25
2017-11-07T09:05:04.698Z,1021.23
2017-11-07T09:06:14.678Z,1021.24
2017-11-07T09:07:25.008Z,1021.2
2017-11-07T09:08:35.187Z,1021.25
2017-11-07T09:09:45.487Z,1021.19
2017-11-07T09:10:55.791Z,1021.21
2017-11-07T09:12:06.094Z,1021.23
2017-11-07T09:13:16.068Z,1021.2
2017-11-07T09:14:26.368Z,1021.2
2017-11-07T09:15:36.375Z,1021.22
2017-11-07T09:16:46.071Z,1021.22
2017-11-07T09:17:56.398Z,1021.26
2017-11-07T09:19:06.734Z,1021.2
2017-11-07T09:20:17.059Z,1021.23
2017-11-07T09:21:27.345Z,1021.23
2017-11-07T09:22:37.341Z,1021.19
2017-11-07T09:23:47.334Z,1021.19
2017-11-07T09:24:57.317Z,1021.19
2017-11-07T09:26:07.623Z,1021.16
2017-11-07T09:27:18.150Z,1021.16
2017-11-07T09:28:28.466Z,1021.19
2017-11-07T09:29:38.779Z,1021.17
2017-11-07T09:30:48.771Z,1021.21
2017-11-07T09:31:59.093Z,1021.19
2017-11-07T09:33:09.423Z,1021.15
2017-11-07T09:34:19.726Z,1021.12
2017-11-07T09:35:29.694Z,1021.11
2017-11-07T09:36:39.345Z,1021.1
2017-11-07T09:37:49.332Z,1021.14
2017-11-07T09:38:59.647Z,1021.12
2017-11-07T09:40:09.636Z,1021.13
2017-11-07T09:41:19.943Z,1021.12
2017-11-07T09:42:30.243Z,1021.11
2017-11-07T09:43:40.553Z,1021.12
2017-11-07T09:44:51.069Z,1021.11
2017-11-07T09:46:01.052Z,1021.11
2017-11-07T09:47:11.063Z,1021.1
2017-11-07T09:48:21.039Z,1021.1
2017-11-07T09:49:31.371Z,1021.15
2017-11-07T09:50:41.692Z,1021.12
2017-11-07T09:51:51.704Z,1021.1
2017-11-07T09:53:01.997Z,1021.09
2017-11-07T09:54:11.975Z,1021.09
2017-11-07T09:55:22.285Z,1021.07
2017-11-07T09:56:32.590Z,1021.04
2017-11-07T09:57:42.909Z,1021.06
2017-11-07T09:58:52.884Z,1021.01
2017-11-07T10:00:02.869Z,1021.03
2017-11-07T10:01:13.128Z,1020.97
2017-11-07T10:02:23.441Z,1021.01
2017-11-07T10:03:33.756Z,1021.01
2017-11-07T10:04:44.079Z,1020.96
2017-11-07T10:05:54.393Z,1020.93
2017-11-07T10:07:04.035Z,1020.94
2017-11-07T10:08:14.021Z,1020.95
2017-11-07T10:09:23.664Z,1020.95
2017-11-07T10:10:33.561Z,1020.96
2017-11-07T10:11:43.865Z,1020.92
2017-11-07T10:12:53.841Z,1020.92
2017-11-07T10:14:04.161Z,1020.9
2017-11-07T10:15:14.489Z,1020.86
2017-11-07T10:16:24.485Z,1020.86
2017-11-07T10:17:33.812Z,1020.81
2017-11-07T10:18:44.135Z,1020.76
2017-11-07T10:19:54.452Z,1020.75
2017-11-07T10:21:05.026Z,1020.73
2017-11-07T10:22:15.319Z,1020.7
2017-11-07T10:23:25.615Z,1020.73
2017-11-07T10:24:35.601Z,1020.76
2017-11-07T10:25:45.920Z,1020.73
2017-11-07T10:26:55.937Z,1020.71
2017-11-07T10:28:06.261Z,1020.71
2017-11-07T10:29:16.589Z,1020.63
2017-11-07T10:30:26.578Z,1020.61
2017-11-07T10:31:36.885Z,1020.61
2017-11-07T10:32:47.205Z,1020.57
2017-11-07T10:33:57.290Z,1020.59
2017-11-07T10:35:07.298Z,1020.56
2017-11-07T10:36:17.292Z,1020.51
2017-11-07T10:37:27.289Z,1020.45
2017-11-07T10:38:37.892Z,1020.46
2017-11-07T10:39:48.259Z,1020.42
2017-11-07T10:40:58.577Z,1020.39
2017-11-07T10:42:08.934Z,1020.37
2017-11-07T10:43:19.249Z,1020.36
2017-11-07T10:44:29.239Z,1020.35
2017-11-07T10:45:39.580Z,1020.38
2017-11-07T10:46:49.932Z,1020.32
2017-11-07T10:48:00.285Z,1020.39
2017-11-07T10:49:10.604Z,1020.33
2017-11-07T10:50:20.606Z,1020.35
2017-11-07T10:51:30.618Z,1020.36
2017-11-07T10:52:40.935Z,1020.33
2017-11-07T10:53:51.275Z,1020.26
2017-11-07T10:55:01.577Z,1020.27
2017-11-07T10:56:11.890Z,1020.29
2017-11-07T10:57:22.233Z,1020.24
2017-11-07T10:58:32.463Z,1020.26
2017-11-07T10:59:42.501Z,1020.27
2017-11-07T11:00:52.856Z,1020.25
2017-11-07T11:02:03.203Z,1020.25
2017-11-07T11:03:13.191Z,1020.26
2017-11-07T11:04:23.185Z,1020.23
2017-11-07T11:05:33.523Z,1020.21
2017-11-07T11:06:43.855Z,1020.23
2017-11-07T11:07:54.183Z,1020.19
2017-11-07T11:09:04.545Z,1020.19
2017-11-07T11:10:14.860Z,1020.2
2017-11-07T11:11:25.247Z,1020.18
2017-11-07T11:12:35.554Z,1020.14
2017-11-07T11:13:45.864Z,1020.15
2017-11-07T11:14:56.241Z,1020.13
2017-11-07T11:16:06.795Z,1020.1
2017-11-07T11:17:17.133Z,1020.08
2017-11-07T11:18:27.177Z,1020.03
2017-11-07T11:19:37.728Z,1020.01
2017-11-07T11:20:48.035Z,1020.02
2017-11-07T11:21:58.353Z,1019.99
2017-11-07T11:23:08.658Z,1020.01
2017-11-07T11:24:18.878Z,1020.03
2017-11-07T11:25:28.896Z,1020
2017-11-07T11:26:39.268Z,1019.96
2017-11-07T11:27:49.599Z,1019.96
2017-11-07T11:28:59.648Z,1019.97
2017-11-07T11:30:10.210Z,1019.95
2017-11-07T11:31:20.565Z,1019.87
2017-11-07T11:32:30.884Z,1019.89
2017-11-07T11:33:40.868Z,1019.83
2017-11-07T11:34:51.305Z,1019.85
2017-11-07T11:36:01.612Z,1019.82
2017-11-07T11:37:11.669Z,1019.76
2017-11-07T11:38:22.008Z,1019.76
2017-11-07T11:39:32.583Z,1019.71
2017-11-07T11:40:42.919Z,1019.69
2017-11-07T11:41:53.289Z,1019.67
2017-11-07T11:43:03.650Z,1019.67
2017-11-07T11:44:13.619Z,1019.66
2017-11-07T11:45:23.864Z,1019.65
2017-11-07T11:46:34.390Z,1019.69
2017-11-07T11:47:44.707Z,1019.66
2017-11-07T11:48:55.036Z,1019.66
2017-11-07T11:50:05.549Z,1019.63
2017-11-07T11:51:15.853Z,1019.61
2017-11-07T11:52:25.835Z,1019.6
2017-11-07T11:53:36.158Z,1019.58
2017-11-07T11:54:46.152Z,1019.58
2017-11-07T11:55:56.453Z,1019.55
2017-11-07T11:57:06.738Z,1019.58
2017-11-07T11:58:17.035Z,1019.54
2017-11-07T11:59:27.356Z,1019.52
2017-11-07T12:00:37.002Z,1019.52
2017-11-07T12:01:47.012Z,1019.53
2017-11-07T12:02:56.979Z,1019.44
2017-11-07T12:04:07.279Z,1019.44
2017-11-07T12:05:17.583Z,1019.44
2017-11-07T12:06:27.568Z,1019.43
2017-11-07T12:07:37.862Z,1019.43
2017-11-07T12:08:48.177Z,1019.4
2017-11-07T12:09:58.476Z,1019.39
2017-11-07T12:11:08.765Z,1019.36
2017-11-07T12:12:18.752Z,1019.38
2017-11-07T12:13:28.720Z,1019.34
2017-11-07T12:14:39.015Z,1019.29
2017-11-07T12:15:49.019Z,1019.28
2017-11-07T12:16:59.327Z,1019.26
2017-11-07T12:18:09.614Z,1019.24
2017-11-07T12:19:19.924Z,1019.24
2017-11-07T12:20:30.234Z,1019.23
2017-11-07T12:21:40.219Z,1019.24
2017-11-07T12:22:50.526Z,1019.21
2017-11-07T12:24:00.191Z,1019.25
2017-11-07T12:25:10.511Z,1019.22
2017-11-07T12:26:20.877Z,1019.15
2017-11-07T12:27:31.171Z,1019.18
2017-11-07T12:28:41.532Z,1019.13
2017-11-07T12:29:51.865Z,1019.15
2017-11-07T12:31:02.184Z,1019.13
2017-11-07T12:32:12.519Z,1019.08
2017-11-07T12:33:22.826Z,1019.05
2017-11-07T12:34:33.142Z,1019.13
2017-11-07T12:35:43.109Z,1019.08
2017-11-07T12:36:53.432Z,1019.04
2017-11-07T12:38:03.736Z,1019.02
2017-11-07T12:39:13.725Z,1019.06
2017-11-07T12:40:24.056Z,1019
2017-11-07T12:41:34.626Z,1019.02
2017-11-07T12:42:44.953Z,1018.98
2017-11-07T12:43:55.326Z,1018.96
2017-11-07T12:45:05.645Z,1019.01
2017-11-07T12:46:15.964Z,1019.01
2017-11-07T12:47:26.298Z,1019.01
2017-11-07T12:48:36.279Z,1019.01
2017-11-07T12:49:46.273Z,1018.91
2017-11-07T12:50:56.598Z,1019.01
2017-11-07T12:52:06.695Z,1019.02
2017-11-07T12:53:17.052Z,1018.98
2017-11-07T12:54:27.355Z,1019.03
2017-11-07T12:55:37.689Z,1019.03
2017-11-07T12:56:47.343Z,1018.99
2017-11-07T12:57:57.927Z,1019.03
2017-11-07T12:59:07.901Z,1018.99
2017-11-07T13:00:18.209Z,1019
2017-11-07T13:01:28.193Z,1019
2017-11-07T13:02:38.499Z,1018.95
2017-11-07T13:03:48.803Z,1018.98
2017-11-07T13:04:59.107Z,1018.94
2017-11-07T13:06:09.074Z,1018.95
2017-11-07T13:07:18.723Z,1018.96
2017-11-07T13:08:28.703Z,1018.89
2017-11-07T13:09:39.017Z,1018.84
2017-11-07T13:10:49.335Z,1018.88
2017-11-07T13:11:59.640Z,1018.9
2017-11-07T13:13:09.621Z,1018.87
2017-11-07T13:14:19.947Z,1018.87
2017-11-07T13:15:30.252Z,1018.87
2017-11-07T13:16:40.225Z,1018.87
2017-11-07T13:17:50.520Z,1018.86
2017-11-07T13:19:00.512Z,1018.86
2017-11-07T13:20:10.166Z,1018.81
2017-11-07T13:21:20.157Z,1018.86
2017-11-07T13:22:30.136Z,1018.83
2017-11-07T13:23:40.454Z,1018.8
2017-11-07T13:24:50.758Z,1018.77
2017-11-07T13:26:01.305Z,1018.76
2017-11-07T13:27:11.267Z,1018.71
2017-11-07T13:28:21.246Z,1018.73
2017-11-07T13:29:31.802Z,1018.75
2017-11-07T13:30:42.117Z,1018.65
2017-11-07T13:31:52.428Z,1018.67
2017-11-07T13:33:02.734Z,1018.65
2017-11-07T13:34:12.701Z,1018.66
2017-11-07T13:35:22.997Z,1018.63
2017-11-07T13:36:33.303Z,1018.64
2017-11-07T13:37:43.605Z,1018.64
2017-11-07T13:38:53.581Z,1018.65
2017-11-07T13:40:03.555Z,1018.57
2017-11-07T13:41:13.531Z,1018.56
2017-11-07T13:42:23.850Z,1018.52
2017-11-07T13:43:33.837Z,1018.52
2017-11-07T13:44:44.166Z,1018.51
2017-11-07T13:45:54.174Z,1018.49
2017-11-07T13:47:04.486Z,1018.46
2017-11-07T13:48:14.481Z,1018.46
2017-11-07T13:49:24.798Z,1018.45
2017-11-07T13:50:35.116Z,1018.41
2017-11-07T13:51:45.419Z,1018.36
2017-11-07T13:52:55.384Z,1018.33
2017-11-07T13:54:05.358Z,1018.39
2017-11-07T13:55:15.657Z,1018.36
2017-11-07T13:56:25.963Z,1018.35
2017-11-07T13:57:36.289Z,1018.39
2017-11-07T13:58:46.582Z,1018.33
2017-11-07T13:59:56.885Z,1018.34
2017-11-07T14:01:07.203Z,1018.37
2017-11-07T14:02:17.526Z,1018.35
2017-11-07T14:03:27.842Z,1018.38
2017-11-07T14:04:38.156Z,1018.38
2017-11-07T14:05:48.504Z,1018.35
2017-11-07T14:06:58.812Z,1018.35
2017-11-07T14:08:09.112Z,1018.35
2017-11-07T14:09:19.338Z,1018.33
2017-11-07T14:10:29.646Z,1018.32